createdAt,value
2023-01-18T00:00:28.950Z,2.93
2023-01-18T00:02:00.990Z,2.93
2023-01-18T00:03:33.573Z,2.93
2023-01-18T00:05:05.789Z,2.92
2023-01-18T00:06:37.705Z,2.92
2023-01-18T00:08:09.753Z,2.90
2023-01-18T00:09:41.825Z,2.92
2023-01-18T00:11:15.963Z,2.93
2023-01-18T00:12:48.119Z,2.94
2023-01-18T00:14:20.092Z,2.94
2023-01-18T00:15:52.053Z,2.97
2023-01-18T00:17:24.087Z,2.97
2023-01-18T00:18:57.262Z,2.98
2023-01-18T00:20:30.323Z,3.00
2023-01-18T00:22:02.237Z,3.00
2023-01-18T00:23:34.282Z,3.01
2023-01-18T00:25:06.330Z,3.04
2023-01-18T00:26:38.332Z,3.04
2023-01-18T00:28:10.291Z,3.07
2023-01-18T00:29:42.349Z,3.10
2023-01-18T00:31:15.781Z,3.13
2023-01-18T00:32:48.183Z,3.13
2023-01-18T00:34:20.231Z,3.15
2023-01-18T00:35:58.458Z,3.16
2023-01-18T00:37:32.433Z,3.20
2023-01-18T00:39:04.511Z,3.22
2023-01-18T00:40:36.427Z,3.26
2023-01-18T00:42:26.696Z,3.28
2023-01-18T00:43:58.683Z,3.31
2023-01-18T00:45:30.772Z,3.31
2023-01-18T00:47:02.768Z,3.27
2023-01-18T00:48:35.174Z,3.27
2023-01-18T00:50:07.518Z,3.23
2023-01-18T00:51:39.565Z,3.23
2023-01-18T00:53:11.508Z,3.23
2023-01-18T00:54:43.581Z,3.23
2023-01-18T00:56:17.635Z,3.24
2023-01-18T00:57:50.491Z,3.24
2023-01-18T00:59:22.453Z,3.25
2023-01-18T01:00:54.523Z,3.26
2023-01-18T01:02:26.526Z,3.27
2023-01-18T01:04:16.856Z,3.30
2023-01-18T01:06:07.521Z,3.31
2023-01-18T01:07:39.571Z,3.31
2023-01-18T01:09:15.737Z,3.30
2023-01-18T01:10:48.891Z,3.29
2023-01-18T01:12:39.347Z,3.28
2023-01-18T01:14:29.930Z,3.30
2023-01-18T01:16:27.999Z,3.31
2023-01-18T01:18:18.765Z,3.33
2023-01-18T01:20:09.425Z,3.34
2023-01-18T01:21:59.997Z,3.35
2023-01-18T01:23:50.603Z,3.36
2023-01-18T01:25:41.191Z,3.36
2023-01-18T01:27:14.042Z,3.39
2023-01-18T01:28:49.975Z,3.36
2023-01-18T01:30:21.946Z,3.37
2023-01-18T01:31:53.910Z,3.40
2023-01-18T01:33:25.929Z,3.39
2023-01-18T01:34:57.938Z,3.35
2023-01-18T01:36:29.947Z,3.33
2023-01-18T01:38:02.028Z,3.32
2023-01-18T01:39:34.019Z,3.32
2023-01-18T01:41:07.398Z,3.30
2023-01-18T01:42:39.308Z,3.32
2023-01-18T01:44:20.376Z,3.35
2023-01-18T01:45:52.924Z,3.38
2023-01-18T01:47:34.537Z,3.39
2023-01-18T01:49:11.757Z,3.41
2023-01-18T01:50:43.758Z,3.42
2023-01-18T01:52:17.172Z,3.45
2023-01-18T01:53:49.613Z,3.43
2023-01-18T01:55:31.906Z,3.46
2023-01-18T01:57:06.303Z,3.45
2023-01-18T01:58:39.271Z,3.45
2023-01-18T02:00:12.060Z,3.46
2023-01-18T02:01:44.506Z,3.46
2023-01-18T02:03:20.043Z,3.47
2023-01-18T02:04:54.281Z,3.47
2023-01-18T02:06:31.429Z,3.45
2023-01-18T02:08:04.315Z,3.45
2023-01-18T02:09:36.458Z,3.43
2023-01-18T02:11:08.521Z,3.45
2023-01-18T02:12:41.537Z,3.44
2023-01-18T02:14:16.579Z,3.43
2023-01-18T02:15:48.607Z,3.42
2023-01-18T02:17:39.258Z,3.40
2023-01-18T02:19:31.619Z,3.35
2023-01-18T02:21:03.602Z,3.33
2023-01-18T02:22:35.591Z,3.32
2023-01-18T02:24:13.249Z,3.31
2023-01-18T02:25:50.889Z,3.30
2023-01-18T02:27:24.844Z,3.30
2023-01-18T02:29:26.373Z,3.31
2023-01-18T02:31:10.866Z,3.31
2023-01-18T02:32:51.717Z,3.35
2023-01-18T02:34:34.247Z,3.33
2023-01-18T02:36:06.693Z,3.36
2023-01-18T02:37:39.896Z,3.36
2023-01-18T02:39:38.299Z,3.37
2023-01-18T02:41:19.588Z,3.40
2023-01-18T02:43:11.418Z,3.40
2023-01-18T02:45:04.100Z,3.44
2023-01-18T02:46:36.174Z,3.44
2023-01-18T02:48:08.728Z,3.44
2023-01-18T02:49:40.677Z,3.43
2023-01-18T02:51:12.691Z,3.44
2023-01-18T02:52:51.227Z,3.39
2023-01-18T02:54:24.461Z,3.34
2023-01-18T02:56:01.323Z,3.34
2023-01-18T02:57:33.826Z,3.35
2023-01-18T02:59:11.519Z,3.33
2023-01-18T03:00:46.905Z,3.33
2023-01-18T03:02:20.627Z,3.35
2023-01-18T03:03:55.537Z,3.36
2023-01-18T03:05:28.144Z,3.33
2023-01-18T03:07:10.272Z,3.31
2023-01-18T03:08:47.249Z,3.29
2023-01-18T03:10:19.541Z,3.28
2023-01-18T03:11:56.703Z,3.26
2023-01-18T03:13:31.451Z,3.23
2023-01-18T03:15:26.472Z,3.24
2023-01-18T03:17:03.615Z,3.21
2023-01-18T03:19:00.398Z,3.21
2023-01-18T03:20:34.609Z,3.21
2023-01-18T03:22:06.617Z,3.22
2023-01-18T03:23:40.034Z,3.18
2023-01-18T03:25:13.583Z,3.16
2023-01-18T03:26:48.060Z,3.15
2023-01-18T03:28:40.456Z,3.15
2023-01-18T03:30:31.293Z,3.13
2023-01-18T03:32:35.842Z,3.14
2023-01-18T03:34:14.188Z,3.15
2023-01-18T03:35:46.830Z,3.15
2023-01-18T03:37:24.699Z,3.20
2023-01-18T03:39:05.321Z,3.19
2023-01-18T03:40:37.514Z,3.17
2023-01-18T03:42:12.807Z,3.13
2023-01-18T03:43:45.122Z,3.14
2023-01-18T03:45:25.193Z,3.15
2023-01-18T03:46:57.536Z,3.14
2023-01-18T03:48:29.958Z,3.13
2023-01-18T03:50:02.007Z,3.12
2023-01-18T03:51:40.700Z,3.13
2023-01-18T03:53:14.772Z,3.14
2023-01-18T03:54:51.892Z,3.13
2023-01-18T03:56:23.851Z,3.13
2023-01-18T03:57:59.285Z,3.16
2023-01-18T03:59:34.335Z,3.13
2023-01-18T04:01:06.626Z,3.14
2023-01-18T04:02:38.636Z,3.09
2023-01-18T04:04:10.824Z,3.07
2023-01-18T04:05:42.732Z,3.03
2023-01-18T04:07:14.706Z,3.02
2023-01-18T04:08:46.617Z,3.00
2023-01-18T04:10:18.711Z,3.00
2023-01-18T04:11:50.889Z,3.00
2023-01-18T04:13:23.366Z,2.98
2023-01-18T04:14:55.293Z,2.94
2023-01-18T04:16:27.171Z,2.93
2023-01-18T04:17:59.128Z,2.91
2023-01-18T04:19:31.066Z,2.89
2023-01-18T04:21:03.012Z,2.88
2023-01-18T04:22:35.208Z,2.86
2023-01-18T04:24:07.381Z,2.84
2023-01-18T04:25:40.931Z,2.84
2023-01-18T04:27:13.271Z,2.83
2023-01-18T04:28:45.273Z,2.82
2023-01-18T04:30:17.402Z,2.82
2023-01-18T04:31:49.553Z,2.80
2023-01-18T04:33:21.959Z,2.81
2023-01-18T04:34:53.915Z,2.79
2023-01-18T04:36:25.838Z,2.80
2023-01-18T04:37:58.465Z,2.80
2023-01-18T04:39:30.415Z,2.79
2023-01-18T04:41:05.867Z,2.80
2023-01-18T04:42:37.819Z,2.80
2023-01-18T04:44:09.932Z,2.79
2023-01-18T04:45:41.882Z,2.79
2023-01-18T04:47:13.863Z,2.79
2023-01-18T04:48:48.970Z,2.79
2023-01-18T04:50:20.893Z,2.80
2023-01-18T04:51:52.799Z,2.81
2023-01-18T04:53:24.726Z,2.81
2023-01-18T04:54:56.729Z,2.82
2023-01-18T04:56:28.738Z,2.85
2023-01-18T04:58:01.220Z,2.86
2023-01-18T04:59:33.239Z,2.86
2023-01-18T05:01:06.187Z,2.87
2023-01-18T05:02:38.665Z,2.86
2023-01-18T05:04:10.957Z,2.87
2023-01-18T05:05:42.954Z,2.89
2023-01-18T05:07:14.941Z,2.87
2023-01-18T05:08:47.028Z,2.89
2023-01-18T05:10:19.074Z,2.90
2023-01-18T05:11:51.119Z,2.92
2023-01-18T05:13:23.177Z,2.95
2023-01-18T05:14:55.494Z,2.97
2023-01-18T05:16:28.241Z,2.99
2023-01-18T05:18:00.989Z,3.00
2023-01-18T05:19:33.070Z,3.01
2023-01-18T05:21:05.080Z,3.02
2023-01-18T05:22:37.401Z,3.02
2023-01-18T05:24:09.384Z,3.02
2023-01-18T05:25:41.314Z,3.05
2023-01-18T05:27:13.378Z,3.04
2023-01-18T05:28:45.897Z,3.06
2023-01-18T05:30:18.298Z,3.06
2023-01-18T05:31:50.272Z,3.06
2023-01-18T05:33:22.933Z,3.07
2023-01-18T05:34:54.865Z,3.09
2023-01-18T05:36:26.777Z,3.10
2023-01-18T05:37:58.956Z,3.11
2023-01-18T05:39:30.928Z,3.12
2023-01-18T05:41:02.837Z,3.12
2023-01-18T05:42:34.823Z,3.12
2023-01-18T05:44:06.792Z,3.14
2023-01-18T05:45:39.106Z,3.16
2023-01-18T05:47:11.070Z,3.15
2023-01-18T05:48:43.084Z,3.16
2023-01-18T05:50:16.102Z,3.15
2023-01-18T05:51:48.125Z,3.16
2023-01-18T05:53:20.812Z,3.15
2023-01-18T05:54:52.763Z,3.15
2023-01-18T05:56:24.678Z,3.14
2023-01-18T05:57:56.660Z,3.12
2023-01-18T05:59:28.597Z,3.14
2023-01-18T06:01:00.743Z,3.15
2023-01-18T06:02:32.688Z,3.14
2023-01-18T06:04:04.709Z,3.16
2023-01-18T06:05:36.662Z,3.14
2023-01-18T06:07:09.337Z,3.14
2023-01-18T06:08:41.304Z,3.14
2023-01-18T06:10:13.435Z,3.14
2023-01-18T06:11:45.370Z,3.13
2023-01-18T06:13:17.401Z,3.13
2023-01-18T06:14:49.574Z,3.13
2023-01-18T06:16:21.724Z,3.14
2023-01-18T06:17:53.708Z,3.15
2023-01-18T06:19:25.709Z,3.17
2023-01-18T06:21:00.983Z,3.17
2023-01-18T06:22:33.355Z,3.19
2023-01-18T06:24:05.451Z,3.18
2023-01-18T06:25:37.510Z,3.21
2023-01-18T06:27:09.747Z,3.19
2023-01-18T06:28:41.789Z,3.21
2023-01-18T06:30:13.865Z,3.20
2023-01-18T06:31:46.015Z,3.22
2023-01-18T06:33:18.131Z,3.23
2023-01-18T06:34:50.158Z,3.22
2023-01-18T06:36:22.149Z,3.23
2023-01-18T06:37:56.510Z,3.24
2023-01-18T06:39:28.593Z,3.24
2023-01-18T06:41:00.626Z,3.26
2023-01-18T06:42:33.147Z,3.27
2023-01-18T06:44:05.478Z,3.29
2023-01-18T06:45:37.491Z,3.29
2023-01-18T06:47:09.560Z,3.30
2023-01-18T06:48:41.507Z,3.32
2023-01-18T06:50:13.575Z,3.33
2023-01-18T06:51:45.569Z,3.34
2023-01-18T06:53:17.701Z,3.36
2023-01-18T06:54:49.636Z,3.38
2023-01-18T06:56:21.662Z,3.41
2023-01-18T06:57:55.106Z,3.43
2023-01-18T06:59:28.557Z,3.45
2023-01-18T07:01:00.738Z,3.48
2023-01-18T07:02:33.547Z,3.52
2023-01-18T07:04:06.328Z,3.54
2023-01-18T07:05:38.380Z,3.57
2023-01-18T07:07:10.327Z,3.58
2023-01-18T07:08:42.272Z,3.61
2023-01-18T07:10:16.366Z,3.64
2023-01-18T07:11:48.645Z,3.69
2023-01-18T07:13:20.996Z,3.71
2023-01-18T07:14:53.052Z,3.72
2023-01-18T07:16:24.987Z,3.76
2023-01-18T07:17:56.998Z,3.78
2023-01-18T07:19:28.961Z,3.79
2023-01-18T07:21:00.980Z,3.81
2023-01-18T07:22:32.929Z,3.85
2023-01-18T07:24:05.897Z,3.87
2023-01-18T07:25:37.844Z,3.90
2023-01-18T07:27:09.820Z,3.92
2023-01-18T07:28:42.095Z,3.93
2023-01-18T07:30:14.675Z,3.92
2023-01-18T07:31:46.689Z,3.92
2023-01-18T07:33:18.637Z,3.95
2023-01-18T07:34:50.683Z,3.98
2023-01-18T07:36:22.995Z,3.99
2023-01-18T07:37:54.965Z,4.01
2023-01-18T07:39:27.055Z,4.02
2023-01-18T07:41:02.140Z,4.01
2023-01-18T07:42:34.130Z,4.01
2023-01-18T07:44:06.383Z,4.00
2023-01-18T07:45:38.436Z,4.03
2023-01-18T07:47:10.387Z,4.05
2023-01-18T07:48:42.769Z,4.06
2023-01-18T07:50:14.688Z,4.10
2023-01-18T07:51:46.682Z,4.14
2023-01-18T07:53:19.084Z,4.17
2023-01-18T07:54:51.030Z,4.23
2023-01-18T07:56:25.217Z,4.25
2023-01-18T07:57:57.280Z,4.32
2023-01-18T07:59:31.056Z,4.38
2023-01-18T08:01:07.095Z,4.43
2023-01-18T08:02:39.100Z,4.51
2023-01-18T08:04:12.029Z,4.52
2023-01-18T08:05:44.512Z,4.58
2023-01-18T08:07:17.959Z,4.62
2023-01-18T08:08:50.076Z,4.63
2023-01-18T08:10:22.344Z,4.62
2023-01-18T08:11:54.284Z,4.60
2023-01-18T08:13:27.169Z,4.57
2023-01-18T08:14:59.237Z,4.57
2023-01-18T08:16:31.375Z,4.54
2023-01-18T08:18:04.541Z,4.51
2023-01-18T08:19:36.654Z,4.46
2023-01-18T08:21:11.118Z,4.45
2023-01-18T08:22:43.162Z,4.43
2023-01-18T08:24:15.216Z,4.39
2023-01-18T08:25:50.170Z,4.37
2023-01-18T08:27:22.636Z,4.36
2023-01-18T08:28:54.794Z,4.35
2023-01-18T08:30:28.300Z,4.32
2023-01-18T08:32:00.835Z,4.31
2023-01-18T08:33:35.862Z,4.31
2023-01-18T08:35:08.204Z,4.29
2023-01-18T08:36:40.983Z,4.26
2023-01-18T08:38:14.171Z,4.26
2023-01-18T08:39:46.195Z,4.30
2023-01-18T08:41:18.869Z,4.32
2023-01-18T08:42:51.201Z,4.36
2023-01-18T08:44:23.719Z,4.42
2023-01-18T08:45:55.697Z,4.48
2023-01-18T08:47:27.755Z,4.55
2023-01-18T08:48:59.762Z,4.61
2023-01-18T08:50:32.788Z,4.69
2023-01-18T08:52:04.967Z,4.74
2023-01-18T08:53:36.959Z,4.79
2023-01-18T08:55:09.096Z,4.83
2023-01-18T08:56:41.138Z,4.81
2023-01-18T08:58:13.900Z,4.79
2023-01-18T08:59:45.875Z,4.87
2023-01-18T09:01:18.351Z,4.97
2023-01-18T09:02:50.454Z,5.02
2023-01-18T09:04:22.958Z,5.07
2023-01-18T09:05:54.965Z,5.19
2023-01-18T09:07:27.768Z,5.22
2023-01-18T09:09:00.160Z,5.34
2023-01-18T09:10:32.833Z,5.47
2023-01-18T09:12:04.863Z,5.57
2023-01-18T09:13:54.438Z,5.65
2023-01-18T09:15:48.140Z,5.81
2023-01-18T09:17:21.318Z,5.91
2023-01-18T09:18:55.456Z,5.98
2023-01-18T09:20:27.914Z,6.02
2023-01-18T09:21:59.935Z,5.92
2023-01-18T09:23:31.887Z,5.86
2023-01-18T09:25:04.352Z,5.88
2023-01-18T09:26:36.310Z,5.86
2023-01-18T09:28:08.419Z,5.88
2023-01-18T09:29:40.445Z,5.94
2023-01-18T09:31:12.495Z,5.95
2023-01-18T09:32:44.506Z,5.98
2023-01-18T09:34:19.988Z,5.91
2023-01-18T09:35:52.251Z,5.79
2023-01-18T09:37:24.325Z,5.68
2023-01-18T09:38:56.863Z,5.61
2023-01-18T09:40:41.381Z,5.54
2023-01-18T09:42:17.612Z,5.45
2023-01-18T09:43:51.575Z,5.38
2023-01-18T09:45:28.974Z,5.31
2023-01-18T09:47:03.937Z,5.26
2023-01-18T09:48:39.865Z,5.19
2023-01-18T09:50:16.567Z,5.09
2023-01-18T09:51:57.187Z,5.05
2023-01-18T09:53:29.234Z,5.03
2023-01-18T09:55:07.224Z,5.03
2023-01-18T09:56:58.154Z,5.01
2023-01-18T09:58:30.202Z,5.01
2023-01-18T10:00:05.059Z,5.03
2023-01-18T10:01:37.830Z,5.03
2023-01-18T10:03:12.967Z,5.04
2023-01-18T10:04:47.812Z,5.02
2023-01-18T10:06:22.923Z,5.01
2023-01-18T10:08:02.453Z,4.98
2023-01-18T10:09:54.466Z,4.96
2023-01-18T10:11:47.411Z,4.95
2023-01-18T10:13:35.317Z,4.96
2023-01-18T10:15:10.675Z,4.91
2023-01-18T10:16:42.826Z,4.87
2023-01-18T10:18:16.117Z,4.77
2023-01-18T10:19:48.375Z,4.69
2023-01-18T10:21:41.309Z,4.63
2023-01-18T10:23:25.622Z,4.56
2023-01-18T10:24:57.680Z,4.52
2023-01-18T10:26:30.785Z,4.52
2023-01-18T10:28:26.219Z,4.53
2023-01-18T10:30:25.835Z,4.58
2023-01-18T10:32:03.066Z,4.70
2023-01-18T10:33:38.467Z,4.81
2023-01-18T10:35:16.773Z,4.93
2023-01-18T10:36:51.006Z,5.07
2023-01-18T10:38:24.832Z,5.19
2023-01-18T10:39:59.193Z,5.35
2023-01-18T10:41:33.907Z,5.54
2023-01-18T10:43:10.381Z,5.67
2023-01-18T10:44:42.355Z,5.85
2023-01-18T10:46:15.707Z,6.05
2023-01-18T10:47:51.382Z,6.22
2023-01-18T10:49:33.656Z,6.40
2023-01-18T10:51:06.439Z,6.49
2023-01-18T10:52:38.488Z,6.57
2023-01-18T10:54:23.900Z,6.66
2023-01-18T10:55:55.958Z,6.74
2023-01-18T10:57:32.185Z,6.84
2023-01-18T10:59:05.946Z,6.90
2023-01-18T11:00:38.000Z,6.95
2023-01-18T11:02:19.443Z,7.02
2023-01-18T11:03:53.338Z,7.06
2023-01-18T11:05:29.357Z,7.07
2023-01-18T11:07:02.733Z,7.13
2023-01-18T11:08:35.662Z,7.17
2023-01-18T11:10:24.903Z,7.23
2023-01-18T11:12:35.042Z,7.28
2023-01-18T11:14:22.375Z,7.34
2023-01-18T11:16:15.660Z,7.45
2023-01-18T11:17:54.624Z,7.53
2023-01-18T11:19:26.851Z,7.62
2023-01-18T11:20:59.062Z,7.63
2023-01-18T11:22:33.512Z,7.65
2023-01-18T11:24:12.408Z,7.66
2023-01-18T11:25:50.031Z,7.68
2023-01-18T11:27:23.907Z,7.68
2023-01-18T11:28:56.015Z,7.65
2023-01-18T11:30:28.141Z,7.61
2023-01-18T11:32:07.230Z,7.56
2023-01-18T11:33:49.204Z,7.53
2023-01-18T11:35:28.513Z,7.46
2023-01-18T11:37:01.059Z,7.39
2023-01-18T11:38:34.150Z,7.35
2023-01-18T11:40:32.498Z,7.30
2023-01-18T11:42:14.181Z,7.18
2023-01-18T11:44:01.284Z,7.12
2023-01-18T11:45:35.927Z,7.00
2023-01-18T11:47:12.577Z,6.94
2023-01-18T11:48:48.574Z,6.91
2023-01-18T11:50:25.960Z,6.87
2023-01-18T11:52:02.056Z,6.82
2023-01-18T11:53:54.342Z,6.73
2023-01-18T11:55:32.403Z,6.69
2023-01-18T11:57:04.749Z,6.67
2023-01-18T11:58:36.887Z,6.63
2023-01-18T12:00:14.298Z,6.56
2023-01-18T12:01:55.375Z,6.48
2023-01-18T12:03:33.432Z,6.40
2023-01-18T12:05:17.356Z,6.35
2023-01-18T12:06:49.394Z,6.30
2023-01-18T12:08:31.877Z,6.25
2023-01-18T12:10:04.661Z,6.23
2023-01-18T12:11:54.997Z,6.23
2023-01-18T12:13:43.569Z,6.23
2023-01-18T12:15:15.579Z,6.24
2023-01-18T12:16:50.550Z,6.19
2023-01-18T12:18:25.898Z,6.15
2023-01-18T12:20:14.440Z,6.11
2023-01-18T12:22:05.307Z,6.08
2023-01-18T12:23:48.135Z,6.06
2023-01-18T12:25:26.342Z,6.07
2023-01-18T12:27:02.014Z,6.14
2023-01-18T12:28:52.331Z,6.20
2023-01-18T12:31:03.117Z,6.28
2023-01-18T12:32:41.066Z,6.34
2023-01-18T12:34:13.015Z,6.34
2023-01-18T12:35:51.488Z,6.32
2023-01-18T12:37:42.637Z,6.29
2023-01-18T12:39:29.656Z,6.30
2023-01-18T12:41:17.659Z,6.29
2023-01-18T12:43:00.699Z,6.32
2023-01-18T12:44:41.980Z,6.34
2023-01-18T12:46:16.826Z,6.35
2023-01-18T12:47:54.947Z,6.39
2023-01-18T12:49:29.643Z,6.40
2023-01-18T12:51:07.014Z,6.40
2023-01-18T12:52:43.718Z,6.41
2023-01-18T12:54:59.724Z,6.42
2023-01-18T12:56:46.050Z,6.39
2023-01-18T12:58:25.612Z,6.35
2023-01-18T13:00:00.029Z,6.34
2023-01-18T13:01:40.105Z,6.32
2023-01-18T13:03:22.025Z,6.32
2023-01-18T13:05:02.715Z,6.30
2023-01-18T13:06:36.044Z,6.31
2023-01-18T13:08:14.683Z,6.33
2023-01-18T13:09:49.641Z,6.39
2023-01-18T13:11:21.636Z,6.46
2023-01-18T13:12:54.302Z,6.53
2023-01-18T13:14:26.243Z,6.59
2023-01-18T13:16:09.900Z,6.62
2023-01-18T13:17:46.512Z,6.66
2023-01-18T13:19:21.619Z,6.71
2023-01-18T13:21:00.726Z,6.74
2023-01-18T13:22:51.253Z,6.75
2023-01-18T13:24:23.208Z,6.75
2023-01-18T13:26:04.553Z,6.81
2023-01-18T13:27:37.795Z,6.82
2023-01-18T13:29:10.275Z,6.82
2023-01-18T13:31:03.188Z,6.87
2023-01-18T13:32:37.202Z,6.93
2023-01-18T13:34:22.680Z,6.97
2023-01-18T13:35:58.723Z,7.02
2023-01-18T13:37:46.023Z,7.04
2023-01-18T13:39:19.469Z,7.04
2023-01-18T13:41:02.740Z,7.05
2023-01-18T13:42:38.157Z,7.04
2023-01-18T13:44:27.169Z,7.00
2023-01-18T13:46:00.587Z,6.96
2023-01-18T13:47:35.700Z,6.95
2023-01-18T13:49:35.789Z,6.94
2023-01-18T13:51:09.398Z,6.93
2023-01-18T13:52:43.567Z,6.90
2023-01-18T13:54:19.216Z,6.87
2023-01-18T13:56:00.337Z,6.86
2023-01-18T13:57:33.728Z,6.90
2023-01-18T13:59:16.925Z,7.00
2023-01-18T14:00:49.250Z,7.05
2023-01-18T14:02:34.181Z,7.10
2023-01-18T14:04:26.481Z,7.15
2023-01-18T14:05:58.781Z,7.17
2023-01-18T14:07:35.999Z,7.17
2023-01-18T14:09:09.352Z,7.15
2023-01-18T14:10:46.500Z,7.11
2023-01-18T14:12:38.424Z,7.06
2023-01-18T14:14:17.654Z,7.05
2023-01-18T14:15:51.262Z,7.00
2023-01-18T14:17:25.423Z,6.99
2023-01-18T14:18:57.906Z,6.97
2023-01-18T14:20:41.743Z,6.99
2023-01-18T14:22:33.081Z,7.00
2023-01-18T14:24:06.476Z,6.99
2023-01-18T14:25:54.765Z,6.95
2023-01-18T14:27:28.554Z,6.91
2023-01-18T14:29:06.473Z,6.87
2023-01-18T14:30:39.014Z,6.81
2023-01-18T14:32:14.532Z,6.77
2023-01-18T14:33:46.763Z,6.74
2023-01-18T14:35:25.561Z,6.72
2023-01-18T14:36:58.217Z,6.69
2023-01-18T14:38:30.747Z,6.67
2023-01-18T14:40:23.025Z,6.66
2023-01-18T14:41:57.435Z,6.65
2023-01-18T14:43:32.231Z,6.66
2023-01-18T14:45:05.145Z,6.67
2023-01-18T14:46:37.234Z,6.66
2023-01-18T14:48:11.450Z,6.64
2023-01-18T14:49:44.627Z,6.62
2023-01-18T14:51:18.373Z,6.61
2023-01-18T14:52:51.023Z,6.60
2023-01-18T14:54:26.782Z,6.61
2023-01-18T14:56:01.872Z,6.65
2023-01-18T14:57:33.972Z,6.63
2023-01-18T14:59:19.730Z,6.64
2023-01-18T15:00:55.680Z,6.65
2023-01-18T15:02:29.322Z,6.63
2023-01-18T15:04:02.685Z,6.61
2023-01-18T15:05:34.691Z,6.62
2023-01-18T15:07:10.106Z,6.64
2023-01-18T15:08:43.527Z,6.67
2023-01-18T15:10:16.750Z,6.67
2023-01-18T15:11:49.387Z,6.70
2023-01-18T15:13:26.365Z,6.69
2023-01-18T15:15:05.309Z,6.66
2023-01-18T15:16:37.452Z,6.63
2023-01-18T15:18:11.196Z,6.62
2023-01-18T15:19:45.031Z,6.60
2023-01-18T15:21:22.551Z,6.59
2023-01-18T15:22:54.714Z,6.57
2023-01-18T15:24:26.707Z,6.53
2023-01-18T15:26:15.978Z,6.53
2023-01-18T15:27:58.372Z,6.52
2023-01-18T15:29:35.219Z,6.51
2023-01-18T15:31:14.729Z,6.50
2023-01-18T15:32:47.981Z,6.48
2023-01-18T15:34:35.462Z,6.47
2023-01-18T15:36:09.787Z,6.44
2023-01-18T15:37:42.164Z,6.42
2023-01-18T15:39:14.195Z,6.38
2023-01-18T15:41:15.523Z,6.35
2023-01-18T15:42:51.926Z,6.30
2023-01-18T15:44:26.528Z,6.28
2023-01-18T15:45:58.975Z,6.24
2023-01-18T15:47:36.695Z,6.21
2023-01-18T15:49:13.001Z,6.19
2023-01-18T15:50:49.646Z,6.18
2023-01-18T15:52:43.107Z,6.16
2023-01-18T15:54:28.603Z,6.14
2023-01-18T15:56:06.367Z,6.11
2023-01-18T15:57:39.556Z,6.08
2023-01-18T15:59:12.066Z,6.04
2023-01-18T16:00:54.324Z,6.03
2023-01-18T16:02:26.472Z,6.01
2023-01-18T16:04:04.126Z,5.98
2023-01-18T16:05:36.199Z,5.96
2023-01-18T16:07:26.851Z,5.95
2023-01-18T16:09:00.660Z,5.93
2023-01-18T16:10:32.606Z,5.92
2023-01-18T16:12:07.780Z,5.89
2023-01-18T16:13:40.400Z,5.88
2023-01-18T16:15:27.654Z,5.87
2023-01-18T16:16:59.585Z,5.86
2023-01-18T16:18:31.943Z,5.85
2023-01-18T16:20:06.404Z,5.84
2023-01-18T16:21:40.560Z,5.82
2023-01-18T16:23:17.679Z,5.81
2023-01-18T16:25:01.810Z,5.79
2023-01-18T16:26:35.002Z,5.77
2023-01-18T16:28:07.292Z,5.76
2023-01-18T16:29:40.423Z,5.74
2023-01-18T16:31:12.482Z,5.71
2023-01-18T16:32:44.511Z,5.69
2023-01-18T16:34:26.398Z,5.67
2023-01-18T16:35:58.342Z,5.65
2023-01-18T16:37:30.786Z,5.62
2023-01-18T16:39:02.870Z,5.61
2023-01-18T16:40:36.684Z,5.59
2023-01-18T16:42:09.817Z,5.56
2023-01-18T16:43:43.757Z,5.53
2023-01-18T16:45:15.745Z,5.51
2023-01-18T16:46:48.509Z,5.48
2023-01-18T16:48:25.169Z,5.45
2023-01-18T16:49:59.334Z,5.42
2023-01-18T16:51:31.541Z,5.40
2023-01-18T16:53:03.911Z,5.36
2023-01-18T16:54:35.929Z,5.33
2023-01-18T16:56:08.818Z,5.33
2023-01-18T16:57:41.273Z,5.31
2023-01-18T16:59:21.916Z,5.29
2023-01-18T17:00:57.994Z,5.28
2023-01-18T17:02:30.222Z,5.28
2023-01-18T17:04:02.739Z,5.29
2023-01-18T17:05:34.773Z,5.33
2023-01-18T17:07:06.869Z,5.37
2023-01-18T17:08:38.888Z,5.43
2023-01-18T17:10:18.876Z,5.49
2023-01-18T17:11:51.605Z,5.58
2023-01-18T17:13:23.831Z,5.65
2023-01-18T17:14:55.875Z,5.70
2023-01-18T17:16:27.807Z,5.77
2023-01-18T17:18:01.536Z,5.85
2023-01-18T17:19:33.711Z,5.91
2023-01-18T17:21:05.804Z,5.95
2023-01-18T17:22:37.895Z,6.01
2023-01-18T17:24:10.796Z,6.04
2023-01-18T17:25:42.795Z,6.08
2023-01-18T17:27:14.879Z,6.10
2023-01-18T17:28:46.839Z,6.12
2023-01-18T17:30:20.791Z,6.14
2023-01-18T17:31:53.350Z,6.15
2023-01-18T17:33:25.545Z,6.14
2023-01-18T17:34:57.688Z,6.15
2023-01-18T17:36:29.712Z,6.16
2023-01-18T17:38:06.060Z,6.16
2023-01-18T17:39:54.920Z,6.10
2023-01-18T17:41:36.251Z,6.06
2023-01-18T17:43:11.579Z,6.00
2023-01-18T17:44:44.424Z,5.92
2023-01-18T17:46:16.569Z,5.84
2023-01-18T17:47:48.583Z,5.76
2023-01-18T17:49:20.607Z,5.69
2023-01-18T17:50:52.644Z,5.62
2023-01-18T17:52:24.906Z,5.55
2023-01-18T17:54:00.622Z,5.50
2023-01-18T17:55:35.008Z,5.48
2023-01-18T17:57:07.242Z,5.44
2023-01-18T17:58:39.434Z,5.40
2023-01-18T18:00:13.661Z,5.36
2023-01-18T18:01:45.810Z,5.32
2023-01-18T18:03:17.997Z,5.31
2023-01-18T18:04:50.183Z,5.26
2023-01-18T18:06:30.742Z,5.25
2023-01-18T18:08:03.374Z,5.24
2023-01-18T18:09:40.747Z,5.22
2023-01-18T18:11:13.266Z,5.22
2023-01-18T18:12:45.293Z,5.20
2023-01-18T18:14:17.664Z,5.22
2023-01-18T18:15:49.866Z,5.24
2023-01-18T18:17:23.260Z,5.23
2023-01-18T18:18:57.099Z,5.22
2023-01-18T18:20:29.139Z,5.22
2023-01-18T18:22:01.300Z,5.23
2023-01-18T18:23:33.935Z,5.21
2023-01-18T18:25:06.665Z,5.20
2023-01-18T18:26:38.673Z,5.16
2023-01-18T18:28:10.732Z,5.16
2023-01-18T18:29:44.941Z,5.14
2023-01-18T18:31:17.015Z,5.11
2023-01-18T18:32:49.004Z,5.08
2023-01-18T18:34:21.004Z,5.08
2023-01-18T18:35:53.205Z,5.06
2023-01-18T18:37:25.229Z,5.06
2023-01-18T18:39:00.867Z,5.07
2023-01-18T18:40:32.891Z,5.10
2023-01-18T18:42:05.032Z,5.12
2023-01-18T18:43:37.050Z,5.16
2023-01-18T18:45:09.462Z,5.19
2023-01-18T18:46:41.429Z,5.22
2023-01-18T18:48:13.841Z,5.27
2023-01-18T18:49:45.907Z,5.30
2023-01-18T18:51:17.993Z,5.32
2023-01-18T18:52:49.998Z,5.35
2023-01-18T18:54:22.161Z,5.37
2023-01-18T18:56:00.313Z,5.39
2023-01-18T18:57:32.772Z,5.40
2023-01-18T18:59:04.837Z,5.41
2023-01-18T19:00:37.178Z,5.41
2023-01-18T19:02:14.023Z,5.45
2023-01-18T19:03:48.051Z,5.45
2023-01-18T19:05:20.293Z,5.49
2023-01-18T19:06:52.898Z,5.48
2023-01-18T19:08:24.826Z,5.47
2023-01-18T19:09:56.807Z,5.46
2023-01-18T19:11:28.828Z,5.48
2023-01-18T19:13:02.781Z,5.47
2023-01-18T19:14:35.062Z,5.47
2023-01-18T19:16:07.467Z,5.49
2023-01-18T19:17:39.510Z,5.48
2023-01-18T19:19:11.543Z,5.48
2023-01-18T19:20:43.514Z,5.48
2023-01-18T19:22:15.737Z,5.48
2023-01-18T19:23:47.803Z,5.47
2023-01-18T19:25:20.049Z,5.46
2023-01-18T19:26:52.147Z,5.44
2023-01-18T19:28:24.341Z,5.44
2023-01-18T19:29:57.010Z,5.41
2023-01-18T19:31:28.983Z,5.40
2023-01-18T19:33:02.787Z,5.38
2023-01-18T19:34:38.650Z,5.38
2023-01-18T19:36:11.996Z,5.36
2023-01-18T19:37:44.912Z,5.36
2023-01-18T19:39:22.257Z,5.35
2023-01-18T19:40:54.834Z,5.33
2023-01-18T19:42:26.816Z,5.31
2023-01-18T19:43:58.876Z,5.28
2023-01-18T19:45:31.415Z,5.25
2023-01-18T19:47:03.524Z,5.24
2023-01-18T19:48:36.797Z,5.23
2023-01-18T19:50:09.064Z,5.21
2023-01-18T19:51:41.380Z,5.20
2023-01-18T19:53:13.486Z,5.18
2023-01-18T19:54:45.443Z,5.16
2023-01-18T19:56:17.621Z,5.14
2023-01-18T19:57:52.256Z,5.12
2023-01-18T19:59:24.407Z,5.09
2023-01-18T20:00:59.421Z,5.08
2023-01-18T20:02:31.713Z,5.06
2023-01-18T20:04:04.932Z,5.03
2023-01-18T20:05:37.300Z,5.01
2023-01-18T20:07:09.775Z,4.98
2023-01-18T20:08:41.970Z,4.95
2023-01-18T20:10:14.021Z,4.94
2023-01-18T20:11:46.267Z,4.94
2023-01-18T20:13:19.018Z,4.91
2023-01-18T20:14:51.100Z,4.90
2023-01-18T20:16:24.578Z,4.88
2023-01-18T20:17:56.928Z,4.88
2023-01-18T20:19:29.090Z,4.87
2023-01-18T20:21:12.112Z,4.83
2023-01-18T20:22:44.942Z,4.83
2023-01-18T20:24:17.180Z,4.82
2023-01-18T20:25:51.591Z,4.81
2023-01-18T20:27:24.017Z,4.79
2023-01-18T20:28:56.198Z,4.80
2023-01-18T20:30:28.315Z,4.82
2023-01-18T20:32:14.140Z,4.83
2023-01-18T20:33:47.923Z,4.82
2023-01-18T20:35:20.468Z,4.81
2023-01-18T20:36:52.615Z,4.81
2023-01-18T20:38:24.976Z,4.83
2023-01-18T20:39:57.118Z,4.83
2023-01-18T20:41:29.333Z,4.83
2023-01-18T20:43:02.202Z,4.88
2023-01-18T20:44:34.560Z,4.91
2023-01-18T20:46:07.957Z,4.90
2023-01-18T20:47:40.234Z,4.91
2023-01-18T20:49:12.607Z,4.93
2023-01-18T20:50:44.801Z,4.94
2023-01-18T20:52:16.945Z,4.97
2023-01-18T20:53:49.044Z,5.00
2023-01-18T20:55:21.930Z,5.03
2023-01-18T20:56:54.445Z,5.05
2023-01-18T20:58:26.710Z,5.08
2023-01-18T20:59:59.714Z,5.08
2023-01-18T21:01:32.709Z,5.09
2023-01-18T21:03:05.377Z,5.10
2023-01-18T21:04:37.633Z,5.11
2023-01-18T21:06:10.499Z,5.11
2023-01-18T21:07:42.618Z,5.11
2023-01-18T21:09:14.718Z,5.11